createdAt,value
2024-04-12T00:02:09.284Z,101178.78
2024-04-12T00:04:37.084Z,101177.69
2024-04-12T00:07:06.831Z,101175.94
2024-04-12T00:09:33.544Z,101172.06
2024-04-12T00:12:02.272Z,101165.22
2024-04-12T00:14:29.267Z,101154.63
2024-04-12T00:16:56.290Z,101147.72
2024-04-12T00:19:27.304Z,101151.22
2024-04-12T00:21:58.258Z,101151.78
2024-04-12T00:24:26.189Z,101135.34
2024-04-12T00:26:57.255Z,101123.25
2024-04-12T00:29:28.123Z,101129.47
2024-04-12T00:32:15.797Z,101124.09
2024-04-12T00:34:49.702Z,101114.66
2024-04-12T00:37:17.823Z,101115.09
2024-04-12T00:39:55.442Z,101109.16
2024-04-12T00:42:33.801Z,101106.34
2024-04-12T00:45:03.424Z,101091.97
2024-04-12T00:47:33.884Z,101091.63
2024-04-12T00:50:04.541Z,101090.88
2024-04-12T00:52:35.173Z,101095.00
2024-04-12T00:55:09.185Z,101087.34
2024-04-12T00:57:38.945Z,101083.91
2024-04-12T01:00:14.409Z,101078.78
2024-04-12T01:02:44.190Z,101087.13
2024-04-12T01:05:16.360Z,101083.59
2024-04-12T01:07:57.311Z,101080.09
2024-04-12T01:10:27.448Z,101076.09
2024-04-12T01:12:57.152Z,101073.47
2024-04-12T01:15:26.572Z,101070.00
2024-04-12T01:17:54.272Z,101053.13
2024-04-12T01:20:26.402Z,101052.41
2024-04-12T01:22:59.357Z,101060.75
2024-04-12T01:25:27.248Z,101057.09
2024-04-12T01:27:53.893Z,101045.88
2024-04-12T01:30:21.735Z,101045.69
2024-04-12T01:32:51.977Z,101039.44
2024-04-12T01:35:19.669Z,101040.88
2024-04-12T01:37:46.316Z,101031.06
2024-04-12T01:40:13.859Z,101026.81
2024-04-12T01:42:44.340Z,101020.44
2024-04-12T01:45:14.949Z,101017.59
2024-04-12T01:47:47.188Z,101007.47
2024-04-12T01:50:15.286Z,101006.66
2024-04-12T01:52:56.213Z,100996.19
2024-04-12T01:55:26.661Z,100996.94
2024-04-12T01:57:57.228Z,100993.56
2024-04-12T02:00:26.595Z,100989.28
2024-04-12T02:02:55.960Z,100977.47
2024-04-12T02:05:30.957Z,100990.72
2024-04-12T02:07:58.157Z,101008.00
2024-04-12T02:10:24.931Z,101016.31
2024-04-12T02:12:55.320Z,101018.50
2024-04-12T02:15:27.123Z,101014.78
2024-04-12T02:17:59.965Z,101010.28
2024-04-12T02:20:35.956Z,101009.84
2024-04-12T02:23:07.032Z,101007.84
2024-04-12T02:25:37.816Z,100988.69
2024-04-12T02:28:09.389Z,100984.81
2024-04-12T02:30:57.143Z,100979.03
2024-04-12T02:33:27.390Z,100984.03
2024-04-12T02:36:05.427Z,100984.09
2024-04-12T02:38:33.276Z,100981.25
2024-04-12T02:41:00.081Z,100981.53
2024-04-12T02:43:26.806Z,100989.00
2024-04-12T02:45:59.009Z,100987.50
2024-04-12T02:48:26.337Z,100991.09
2024-04-12T02:50:55.498Z,100981.84
2024-04-12T02:53:24.283Z,100988.47
2024-04-12T02:56:10.478Z,101007.09
2024-04-12T02:58:42.964Z,101001.66
2024-04-12T03:01:18.082Z,100997.72
2024-04-12T03:03:50.136Z,100992.66
2024-04-12T03:06:25.016Z,100985.63
2024-04-12T03:08:54.099Z,100979.81
2024-04-12T03:11:23.404Z,100979.53
2024-04-12T03:13:55.444Z,100964.84
2024-04-12T03:16:22.739Z,100973.06
2024-04-12T03:18:52.842Z,100976.78
2024-04-12T03:21:23.778Z,100967.72
2024-04-12T03:23:51.303Z,100968.00
2024-04-12T03:26:20.239Z,100960.25
2024-04-12T03:28:47.535Z,100955.50
2024-04-12T03:31:14.402Z,100944.47
2024-04-12T03:33:45.342Z,100938.66
2024-04-12T03:36:33.891Z,100943.66
2024-04-12T03:39:20.692Z,100936.97
2024-04-12T03:41:54.546Z,100946.25
2024-04-12T03:44:21.221Z,100938.78
2024-04-12T03:46:52.538Z,100930.50
2024-04-12T03:49:23.275Z,100930.25
2024-04-12T03:51:55.616Z,100924.63
2024-04-12T03:54:23.410Z,100927.94
2024-04-12T03:56:51.664Z,100923.91
2024-04-12T03:59:22.465Z,100918.91
2024-04-12T04:01:49.767Z,100916.41
2024-04-12T04:04:20.649Z,100914.97
2024-04-12T04:06:51.776Z,100916.22
2024-04-12T04:09:21.132Z,100912.16
2024-04-12T04:11:48.948Z,100919.31
2024-04-12T04:14:20.904Z,100926.59
2024-04-12T04:16:51.026Z,100925.78
2024-04-12T04:19:40.992Z,100934.06
2024-04-12T04:22:41.186Z,100932.97
2024-04-12T04:25:11.882Z,100927.44
2024-04-12T04:27:39.767Z,100920.25
2024-04-12T04:30:08.334Z,100926.41
2024-04-12T04:32:36.059Z,100931.34
2024-04-12T04:35:12.550Z,100929.31
2024-04-12T04:37:39.944Z,100924.19
2024-04-12T04:40:18.187Z,100922.16
2024-04-12T04:42:47.008Z,100931.72
2024-04-12T04:45:19.269Z,100925.47
2024-04-12T04:47:46.728Z,100936.56
2024-04-12T04:50:18.546Z,100916.25
2024-04-12T04:52:45.705Z,100902.22
2024-04-12T04:55:15.176Z,100898.50
2024-04-12T04:57:45.238Z,100884.50
2024-04-12T05:00:24.651Z,100888.13
2024-04-12T05:02:52.607Z,100887.25
2024-04-12T05:05:26.700Z,100880.75
2024-04-12T05:07:56.749Z,100889.22
2024-04-12T05:10:23.715Z,100893.63
2024-04-12T05:12:51.505Z,100901.91
2024-04-12T05:15:38.011Z,100894.94
2024-04-12T05:18:05.567Z,100897.03
2024-04-12T05:20:45.463Z,100891.91
2024-04-12T05:23:14.028Z,100887.38
2024-04-12T05:25:41.896Z,100883.88
2024-04-12T05:28:09.521Z,100879.81
2024-04-12T05:30:39.001Z,100876.03
2024-04-12T05:33:06.116Z,100872.06
2024-04-12T05:35:36.080Z,100869.09
2024-04-12T05:38:08.994Z,100866.94
2024-04-12T05:40:42.929Z,100856.19
2024-04-12T05:43:15.630Z,100855.41
2024-04-12T05:45:44.091Z,100842.22
2024-04-12T05:48:17.349Z,100845.56
2024-04-12T05:50:49.718Z,100846.38
2024-04-12T05:53:20.730Z,100835.25
2024-04-12T05:55:47.369Z,100840.81
2024-04-12T05:58:19.149Z,100828.91
2024-04-12T06:00:50.259Z,100828.38
2024-04-12T06:03:17.240Z,100832.22
2024-04-12T06:05:57.911Z,100833.75
2024-04-12T06:08:25.134Z,100841.69
2024-04-12T06:10:52.225Z,100847.28
2024-04-12T06:13:22.311Z,100829.19
2024-04-12T06:15:49.582Z,100833.25
2024-04-12T06:18:17.743Z,100835.19
2024-04-12T06:20:45.011Z,100836.66
2024-04-12T06:23:12.562Z,100830.50
2024-04-12T06:25:44.978Z,100829.75
2024-04-12T06:28:13.568Z,100818.59
2024-04-12T06:30:45.285Z,100832.34
2024-04-12T06:33:15.615Z,100847.81
2024-04-12T06:35:45.658Z,100846.56
2024-04-12T06:38:13.880Z,100845.56
2024-04-12T06:40:45.443Z,100862.03
2024-04-12T06:43:16.454Z,100879.50
2024-04-12T06:45:43.416Z,100884.38
2024-04-12T06:48:18.165Z,100896.69
2024-04-12T06:50:58.558Z,100912.94
2024-04-12T06:53:26.078Z,100931.31
2024-04-12T06:56:05.287Z,100948.09
2024-04-12T06:58:32.113Z,100972.13
2024-04-12T07:00:59.367Z,100998.75
2024-04-12T07:03:26.754Z,101010.22
2024-04-12T07:05:56.343Z,101003.44
2024-04-12T07:08:23.594Z,101017.28
2024-04-12T07:10:50.418Z,101025.09
2024-04-12T07:13:28.522Z,101024.66
2024-04-12T07:16:02.566Z,101014.25
2024-04-12T07:18:31.049Z,101046.75
2024-04-12T07:21:16.302Z,101039.41
2024-04-12T07:23:44.675Z,101055.13
2024-04-12T07:26:11.296Z,101046.69
2024-04-12T07:28:37.958Z,101054.56
2024-04-12T07:31:06.302Z,101057.31
2024-04-12T07:33:34.694Z,101051.38
2024-04-12T07:36:01.529Z,101061.09
2024-04-12T07:38:30.928Z,101077.81
2024-04-12T07:40:57.524Z,101092.75
2024-04-12T07:43:25.394Z,101108.34
2024-04-12T07:45:52.215Z,101130.91
2024-04-12T07:48:21.676Z,101110.78
2024-04-12T07:50:49.263Z,101111.78
2024-04-12T07:53:18.912Z,101112.09
2024-04-12T07:55:56.692Z,101116.56
2024-04-12T07:58:28.012Z,101126.13
2024-04-12T08:01:17.888Z,101150.44
2024-04-12T08:03:57.405Z,101159.19
2024-04-12T08:06:43.291Z,101162.97
2024-04-12T08:09:23.293Z,101168.47
2024-04-12T08:11:53.735Z,101173.47
2024-04-12T08:14:23.788Z,101175.34
2024-04-12T08:16:55.685Z,101182.31
2024-04-12T08:19:23.718Z,101185.19
2024-04-12T08:21:51.470Z,101188.94
2024-04-12T08:24:23.913Z,101195.09
2024-04-12T08:26:53.185Z,101186.75
2024-04-12T08:29:25.068Z,101190.50
2024-04-12T08:32:01.112Z,101201.59
2024-04-12T08:34:29.802Z,101207.38
2024-04-12T08:36:58.212Z,101215.22
2024-04-12T08:39:27.439Z,101212.66
2024-04-12T08:42:01.804Z,101211.19
2024-04-12T08:44:31.165Z,101202.66
2024-04-12T08:47:17.863Z,101190.97
2024-04-12T08:49:49.596Z,101185.97
2024-04-12T08:52:35.785Z,101184.25
2024-04-12T08:57:35.173Z,101177.03
2024-04-12T09:00:02.207Z,101180.88
2024-04-12T09:02:42.980Z,101172.63
2024-04-12T09:05:14.145Z,101179.03
2024-04-12T09:07:44.215Z,101188.13
2024-04-12T09:10:17.027Z,101214.25
2024-04-12T09:12:45.685Z,101220.41
2024-04-12T09:15:25.454Z,101223.44
2024-04-12T09:18:00.645Z,101227.56
2024-04-12T09:20:32.141Z,101228.72
2024-04-12T09:23:15.125Z,101227.06
2024-04-12T09:25:47.483Z,101233.16
2024-04-12T09:28:14.767Z,101218.63
2024-04-12T09:31:01.333Z,101232.69
2024-04-12T09:33:32.823Z,101227.38
2024-04-12T09:36:08.000Z,101236.44
2024-04-12T09:38:40.819Z,101241.44
2024-04-12T09:41:29.635Z,101235.34
2024-04-12T09:44:01.210Z,101234.75
2024-04-12T09:46:58.130Z,101236.91
2024-04-12T09:49:45.812Z,101238.03
2024-04-12T09:52:31.239Z,101230.81
2024-04-12T09:55:16.604Z,101224.25
2024-04-12T09:58:05.014Z,101221.28
2024-04-12T10:00:50.466Z,101222.19
2024-04-12T10:03:36.096Z,101218.06
2024-04-12T10:06:22.628Z,101224.34
2024-04-12T10:09:10.075Z,101216.28
2024-04-12T10:11:56.637Z,101211.53
2024-04-12T10:14:42.117Z,101212.59
2024-04-12T10:17:27.362Z,101208.41
2024-04-12T10:20:16.204Z,101212.66
2024-04-12T10:23:01.850Z,101201.09
2024-04-12T10:25:56.542Z,101199.53
2024-04-12T10:28:42.916Z,101210.28
2024-04-12T10:31:31.189Z,101208.50
2024-04-12T10:34:26.752Z,101193.00
2024-04-12T10:37:13.419Z,101191.50
2024-04-12T10:39:46.204Z,101177.91
2024-04-12T10:42:13.736Z,101190.47
2024-04-12T10:44:42.228Z,101201.59
2024-04-12T10:47:13.962Z,101208.03
2024-04-12T10:49:44.522Z,101210.72
2024-04-12T10:52:15.268Z,101206.31
2024-04-12T10:54:44.761Z,101215.22
2024-04-12T10:57:15.279Z,101217.06
2024-04-12T10:59:44.821Z,101213.44
2024-04-12T11:02:14.353Z,101224.19
2024-04-12T11:05:02.376Z,101230.91
2024-04-12T11:07:29.373Z,101234.63
2024-04-12T11:09:59.307Z,101227.69
2024-04-12T11:12:47.186Z,101231.88
2024-04-12T11:15:34.036Z,101219.59
2024-04-12T11:18:20.351Z,101211.78
2024-04-12T11:21:15.031Z,101227.34
2024-04-12T11:24:00.819Z,101229.09
2024-04-12T11:26:46.678Z,101218.53
2024-04-12T11:29:36.144Z,101216.91
2024-04-12T11:32:07.034Z,101216.47
2024-04-12T11:34:39.838Z,101208.25
2024-04-12T11:37:09.978Z,101208.16
2024-04-12T11:39:40.301Z,101205.63
2024-04-12T11:42:10.785Z,101209.13
2024-04-12T11:44:38.302Z,101203.16
2024-04-12T11:47:06.002Z,101199.59
2024-04-12T11:49:43.571Z,101193.38
2024-04-12T11:52:19.573Z,101195.25
2024-04-12T11:54:53.116Z,101192.72
2024-04-12T11:57:24.313Z,101189.56
2024-04-12T11:59:59.806Z,101187.91
2024-04-12T12:02:30.162Z,101185.53
2024-04-12T12:04:58.579Z,101196.13
2024-04-12T12:07:27.942Z,101190.97
2024-04-12T12:09:54.819Z,101187.59
2024-04-12T12:12:27.892Z,101191.91
2024-04-12T12:14:55.354Z,101191.84
2024-04-12T12:17:22.110Z,101188.41
2024-04-12T12:19:51.651Z,101188.63
2024-04-12T12:22:20.063Z,101186.75
2024-04-12T12:24:48.703Z,101180.63
2024-04-12T12:27:17.242Z,101173.97
2024-04-12T12:29:44.128Z,101177.47
2024-04-12T12:32:10.988Z,101174.91
2024-04-12T12:34:40.348Z,101171.59
2024-04-12T12:37:07.837Z,101161.22
2024-04-12T12:39:37.270Z,101164.72
2024-04-12T12:42:11.564Z,101161.19
2024-04-12T12:44:38.532Z,101154.47
2024-04-12T12:47:07.270Z,101150.09
2024-04-12T12:49:42.105Z,101139.53
2024-04-12T12:52:12.597Z,101144.00
2024-04-12T12:54:44.540Z,101136.16
2024-04-12T12:57:13.296Z,101142.38
2024-04-12T12:59:44.574Z,101138.94
2024-04-12T13:02:16.369Z,101136.34
2024-04-12T13:04:44.416Z,101129.44
2024-04-12T13:07:14.435Z,101129.63
2024-04-12T13:09:41.384Z,101132.19
2024-04-12T13:12:10.777Z,101128.72
2024-04-12T13:14:41.859Z,101122.63
2024-04-12T13:17:15.444Z,101117.38
2024-04-12T13:19:43.293Z,101114.88
2024-04-12T13:22:13.351Z,101112.19
2024-04-12T13:24:40.774Z,101113.06
2024-04-12T13:27:11.069Z,101102.63
2024-04-12T13:29:38.482Z,101099.31
2024-04-12T13:32:10.668Z,101095.84
2024-04-12T13:34:38.764Z,101095.13
2024-04-12T13:37:08.020Z,101095.06
2024-04-12T13:39:38.189Z,101086.41
2024-04-12T13:42:12.802Z,101080.38
2024-04-12T13:44:58.594Z,101086.41
2024-04-12T13:47:44.733Z,101076.16
2024-04-12T13:50:30.123Z,101070.97
2024-04-12T13:52:58.164Z,101062.31
2024-04-12T13:55:25.690Z,101070.09
2024-04-12T13:57:54.499Z,101054.44
2024-04-12T14:00:34.319Z,101056.16
2024-04-12T14:03:08.026Z,101049.25
2024-04-12T14:05:36.406Z,101051.03
2024-04-12T14:08:09.915Z,101039.75
2024-04-12T14:10:37.844Z,101047.56
2024-04-12T14:13:07.645Z,101043.22
2024-04-12T14:15:37.787Z,101035.38
2024-04-12T14:18:06.132Z,101025.81
2024-04-12T14:20:32.795Z,101031.06
2024-04-12T14:22:59.442Z,101033.66
2024-04-12T14:25:27.913Z,101029.31
2024-04-12T14:27:55.355Z,101028.44
2024-04-12T14:30:22.884Z,101029.31
2024-04-12T14:32:49.941Z,101024.97
2024-04-12T14:35:16.939Z,101024.97
2024-04-12T14:37:45.834Z,101020.63
2024-04-12T14:40:19.851Z,101020.59
2024-04-12T14:42:53.895Z,101015.38
2024-04-12T14:45:22.792Z,101015.38
2024-04-12T14:47:58.564Z,101011.03
2024-04-12T14:50:29.841Z,101006.69
2024-04-12T14:52:56.546Z,100999.75
2024-04-12T14:55:23.186Z,101000.63
2024-04-12T14:57:51.822Z,101001.50
2024-04-12T15:00:20.007Z,100998.84
2024-04-12T15:02:47.914Z,101001.47
2024-04-12T15:05:33.729Z,100997.13
2024-04-12T15:08:19.171Z,100989.28
2024-04-12T15:11:04.597Z,100989.28
2024-04-12T15:13:50.030Z,100989.19
2024-04-12T15:16:35.334Z,100984.84
2024-04-12T15:19:20.688Z,100980.47
2024-04-12T15:22:05.965Z,100981.34
2024-04-12T15:24:51.369Z,100972.66
2024-04-12T15:27:36.597Z,100982.22
2024-04-12T15:30:21.968Z,100982.19
2024-04-12T15:33:07.624Z,100975.22
2024-04-12T15:35:54.069Z,100970.00
2024-04-12T15:38:39.918Z,100969.91
2024-04-12T15:41:25.135Z,100969.09
2024-04-12T15:44:10.488Z,100968.22
2024-04-12T15:46:55.934Z,100969.09
2024-04-12T15:49:41.305Z,100962.16
2024-04-12T15:52:14.376Z,100961.28
2024-04-12T15:54:47.491Z,100955.13
2024-04-12T15:57:33.017Z,100957.72
2024-04-12T16:00:18.338Z,100968.19
2024-04-12T16:03:03.805Z,100959.41
2024-04-12T16:05:49.174Z,100954.03
2024-04-12T16:08:34.553Z,100951.66
2024-04-12T16:11:01.424Z,100949.34
2024-04-12T16:13:28.785Z,100945.59
2024-04-12T16:15:55.501Z,100942.78
2024-04-12T16:18:23.981Z,100944.81
2024-04-12T16:20:51.336Z,100939.75
2024-04-12T16:23:18.316Z,100940.81
2024-04-12T16:25:57.314Z,100941.16
2024-04-12T16:28:29.484Z,100938.69
2024-04-12T16:30:58.771Z,100934.34
2024-04-12T16:33:26.782Z,100936.84
2024-04-12T16:35:53.830Z,100946.22
2024-04-12T16:38:20.997Z,100937.22
2024-04-12T16:40:47.673Z,100934.34
2024-04-12T16:43:14.433Z,100937.88
2024-04-12T16:45:41.937Z,100936.19
2024-04-12T16:48:08.898Z,100936.78
2024-04-12T16:50:35.719Z,100931.75
2024-04-12T16:53:02.697Z,100934.09
2024-04-12T16:55:29.793Z,100932.97
2024-04-12T16:58:00.944Z,100932.66
2024-04-12T17:00:30.240Z,100934.41
2024-04-12T17:02:57.201Z,100931.13
2024-04-12T17:05:24.066Z,100938.00
2024-04-12T17:07:50.790Z,100928.16
2024-04-12T17:10:20.345Z,100928.31
2024-04-12T17:12:47.730Z,100930.63
2024-04-12T17:15:14.766Z,100926.03
2024-04-12T17:17:41.682Z,100926.19
2024-04-12T17:20:10.520Z,100923.66
2024-04-12T17:22:39.710Z,100925.25
2024-04-12T17:25:08.747Z,100931.91
2024-04-12T17:27:35.769Z,100924.53
2024-04-12T17:30:03.282Z,100923.63
2024-04-12T17:32:37.213Z,100914.94
2024-04-12T17:35:07.721Z,100919.94
2024-04-12T17:37:34.964Z,100924.91
2024-04-12T17:40:02.088Z,100930.91
2024-04-12T17:42:28.812Z,100923.72
2024-04-12T17:44:56.903Z,100920.34
2024-04-12T17:47:25.476Z,100928.41
2024-04-12T17:49:53.110Z,100925.84
2024-04-12T17:52:20.029Z,100931.19
2024-04-12T17:54:46.769Z,100927.97
2024-04-12T17:57:15.402Z,100926.75
2024-04-12T17:59:42.269Z,100930.38
2024-04-12T18:02:08.972Z,100935.69
2024-04-12T18:04:37.781Z,100934.97
2024-04-12T18:07:05.113Z,100938.81
2024-04-12T18:09:31.819Z,100945.22
2024-04-12T18:12:01.154Z,100943.59
2024-04-12T18:14:28.506Z,100940.31
2024-04-12T18:16:55.260Z,100935.09
2024-04-12T18:19:22.031Z,100943.88
2024-04-12T18:21:48.731Z,100941.31
2024-04-12T18:24:16.257Z,100938.72
2024-04-12T18:26:43.098Z,100939.63
2024-04-12T18:29:09.758Z,100948.34
2024-04-12T18:31:36.472Z,100944.03
2024-04-12T18:34:08.041Z,100950.13
2024-04-12T18:36:39.405Z,100950.09
2024-04-12T18:39:24.398Z,100950.13
2024-04-12T18:42:09.725Z,100950.97
2024-04-12T18:44:55.125Z,100956.19
2024-04-12T18:47:22.185Z,100944.88
2024-04-12T18:49:49.748Z,100944.00
2024-04-12T18:52:16.523Z,100949.19
2024-04-12T18:54:43.201Z,100955.25
2024-04-12T18:57:09.910Z,100952.63
2024-04-12T18:59:36.768Z,100956.97
2024-04-12T19:02:03.594Z,100956.03
2024-04-12T19:04:30.442Z,100957.72
2024-04-12T19:06:57.399Z,100955.91
2024-04-12T19:09:24.084Z,100963.66
2024-04-12T19:11:51.264Z,100966.22
2024-04-12T19:14:19.941Z,100963.53
2024-04-12T19:16:47.397Z,100968.63
2024-04-12T19:19:14.124Z,100961.63
2024-04-12T19:21:40.954Z,100965.91
2024-04-12T19:24:07.776Z,100966.66
2024-04-12T19:26:34.500Z,100970.03
2024-04-12T19:29:01.406Z,100966.50
2024-04-12T19:31:28.214Z,100967.28
2024-04-12T19:33:55.294Z,100970.72
2024-04-12T19:36:22.132Z,100975.84
2024-04-12T19:38:49.571Z,100970.59
2024-04-12T19:41:16.256Z,100970.50
2024-04-12T19:43:44.213Z,100976.47
2024-04-12T19:46:15.356Z,100978.16
2024-04-12T19:48:43.879Z,100976.44
2024-04-12T19:51:11.192Z,100972.94
2024-04-12T19:53:38.048Z,100980.69
2024-04-12T19:56:05.346Z,100978.88
2024-04-12T19:58:32.087Z,100978.84
2024-04-12T20:01:02.863Z,100984.88
2024-04-12T20:03:29.868Z,100983.09
2024-04-12T20:05:56.678Z,100983.94
2024-04-12T20:08:23.363Z,100983.88
2024-04-12T20:11:00.867Z,100983.88
2024-04-12T20:13:28.330Z,100983.00
2024-04-12T20:15:59.108Z,100985.53
2024-04-12T20:18:27.600Z,100986.25
2024-04-12T20:21:02.003Z,100985.31
2024-04-12T20:23:29.454Z,100986.94
2024-04-12T20:26:14.276Z,100989.50
2024-04-12T20:28:49.569Z,100995.44
2024-04-12T20:31:21.120Z,100998.81
2024-04-12T20:34:04.583Z,101000.47
2024-04-12T20:36:39.804Z,101009.13
2024-04-12T20:39:19.508Z,101008.22
2024-04-12T20:41:52.208Z,101012.53
2024-04-12T20:44:21.301Z,101016.88
2024-04-12T20:46:53.048Z,101019.41
2024-04-12T20:49:21.222Z,101022.78
2024-04-12T20:51:50.458Z,101020.94
2024-04-12T20:54:17.793Z,101024.31
2024-04-12T20:56:49.804Z,101023.38
2024-04-12T20:59:16.706Z,101024.22
2024-04-12T21:01:48.253Z,101024.25
2024-04-12T21:04:16.133Z,101022.44
2024-04-12T21:06:43.736Z,101023.16
2024-04-12T21:09:10.920Z,101010.16
2024-04-12T21:11:38.299Z,101011.69
2024-04-12T21:14:05.599Z,101012.41
2024-04-12T21:16:33.182Z,101028.03
2024-04-12T21:18:59.988Z,101029.69
2024-04-12T21:21:27.173Z,101021.03
2024-04-12T21:23:53.967Z,101004.59
2024-04-12T21:26:27.893Z,100993.19
2024-04-12T21:28:55.519Z,100983.63
2024-04-12T21:31:23.251Z,101003.31
2024-04-12T21:33:50.308Z,101025.69
2024-04-12T21:36:18.204Z,101023.09
2024-04-12T21:38:46.710Z,101003.28
2024-04-12T21:41:18.847Z,101017.81
2024-04-12T21:43:47.213Z,100990.97
2024-04-12T21:46:16.219Z,100952.09
2024-04-12T21:48:44.846Z,100965.84
2024-04-12T21:51:13.280Z,100945.16
2024-04-12T21:53:41.808Z,100951.13
2024-04-12T21:56:10.311Z,101003.81
2024-04-12T21:58:37.416Z,100999.47
2024-04-12T22:01:16.901Z,101026.22
2024-04-12T22:03:44.051Z,101020.19
2024-04-12T22:06:11.884Z,101030.53
2024-04-12T22:08:41.314Z,101022.75
2024-04-12T22:11:08.425Z,101029.59
2024-04-12T22:13:36.641Z,101004.56
2024-04-12T22:16:05.718Z,101008.69
2024-04-12T22:18:37.988Z,100986.22
2024-04-12T22:21:06.015Z,100966.09
2024-04-12T22:23:36.682Z,100972.16
2024-04-12T22:26:08.704Z,100992.59
2024-04-12T22:28:37.152Z,101000.94
2024-04-12T22:31:04.545Z,100981.91
2024-04-12T22:33:33.909Z,100974.78
2024-04-12T22:36:11.236Z,100986.72
2024-04-12T22:38:37.936Z,100935.00
2024-04-12T22:41:06.437Z,100915.03
2024-04-12T22:43:33.194Z,100903.75
2024-04-12T22:46:00.224Z,100914.19
2024-04-12T22:48:27.167Z,100945.16
2024-04-12T22:50:55.591Z,100955.59
2024-04-12T22:53:22.801Z,100947.81
2024-04-12T22:55:52.446Z,100945.28
2024-04-12T22:58:19.083Z,100902.00
2024-04-12T23:00:46.205Z,100920.81
2024-04-12T23:03:15.970Z,100887.97
2024-04-12T23:05:43.164Z,100866.28
2024-04-12T23:08:10.038Z,100842.03
2024-04-12T23:10:36.749Z,100775.63
2024-04-12T23:13:03.557Z,100834.16
2024-04-12T23:15:30.430Z,100823.84
2024-04-12T23:17:57.770Z,100809.09
2024-04-12T23:20:24.536Z,100854.69
2024-04-12T23:22:51.169Z,100847.78
2024-04-12T23:25:17.896Z,100853.84
2024-04-12T23:27:44.525Z,100851.19
2024-04-12T23:30:11.493Z,100860.63
2024-04-12T23:32:38.223Z,100886.50
2024-04-12T23:35:05.334Z,100886.59
2024-04-12T23:37:34.388Z,100879.47
2024-04-12T23:40:01.624Z,100841.50
2024-04-12T23:42:28.985Z,100848.13
2024-04-12T23:44:55.688Z,100847.31
2024-04-12T23:47:22.438Z,100804.19
2024-04-12T23:49:49.117Z,100812.66
2024-04-12T23:52:15.784Z,100802.31
2024-04-12T23:54:42.396Z,100805.66
2024-04-12T23:57:09.059Z,100814.38
2024-04-12T23:59:35.831Z,100804.00
